createdAt,value
2023-04-02T00:00:11.410Z,100541.00
2023-04-02T00:02:48.826Z,100538.63
2023-04-02T00:05:19.806Z,100531.25
2023-04-02T00:07:54.213Z,100534.25
2023-04-02T00:10:46.863Z,100533.66
2023-04-02T00:13:14.181Z,100532.34
2023-04-02T00:15:44.206Z,100534.63
2023-04-02T00:18:16.667Z,100533.44
2023-04-02T00:20:49.321Z,100532.63
2023-04-02T00:23:16.528Z,100527.91
2023-04-02T00:25:45.818Z,100528.19
2023-04-02T00:28:16.358Z,100534.28
2023-04-02T00:30:54.658Z,100533.06
2023-04-02T00:33:28.035Z,100531.66
2023-04-02T00:35:56.311Z,100530.31
2023-04-02T00:38:33.415Z,100530.66
2023-04-02T00:41:02.251Z,100537.13
2023-04-02T00:43:32.401Z,100535.91
2023-04-02T00:46:05.410Z,100539.75
2023-04-02T00:48:32.433Z,100543.69
2023-04-02T00:51:30.422Z,100543.44
2023-04-02T00:54:00.996Z,100542.94
2023-04-02T00:56:33.525Z,100532.41
2023-04-02T00:59:01.122Z,100548.69
2023-04-02T01:01:38.030Z,100550.38
2023-04-02T01:04:05.861Z,100553.59
2023-04-02T01:06:37.726Z,100556.94
2023-04-02T01:09:26.393Z,100557.19
2023-04-02T01:11:53.309Z,100566.38
2023-04-02T01:14:48.064Z,100565.56
2023-04-02T01:17:39.289Z,100576.00
2023-04-02T01:20:33.606Z,100580.19
2023-04-02T01:23:00.809Z,100577.78
2023-04-02T01:26:17.245Z,100586.69
2023-04-02T01:29:20.936Z,100584.03
2023-04-02T01:31:50.409Z,100584.28
2023-04-02T01:34:21.120Z,100579.00
2023-04-02T01:36:59.208Z,100588.72
2023-04-02T01:39:41.907Z,100586.91
2023-04-02T01:42:20.989Z,100587.88
2023-04-02T01:44:53.510Z,100592.31
2023-04-02T01:47:29.082Z,100593.28
2023-04-02T01:50:20.482Z,100598.78
2023-04-02T01:52:51.153Z,100590.88
2023-04-02T01:55:29.754Z,100602.53
2023-04-02T01:57:58.584Z,100592.91
2023-04-02T02:00:28.014Z,100601.56
2023-04-02T02:02:55.653Z,100607.31
2023-04-02T02:05:23.426Z,100611.66
2023-04-02T02:07:52.413Z,100604.81
2023-04-02T02:10:27.197Z,100597.25
2023-04-02T02:12:54.620Z,100593.78
2023-04-02T02:15:23.837Z,100594.63
2023-04-02T02:17:58.548Z,100598.31
2023-04-02T02:20:28.196Z,100598.09
2023-04-02T02:22:56.649Z,100601.44
2023-04-02T02:25:33.723Z,100605.53
2023-04-02T02:28:09.913Z,100613.19
2023-04-02T02:31:05.775Z,100608.75
2023-04-02T02:33:52.777Z,100620.63
2023-04-02T02:36:33.946Z,100621.22
2023-04-02T02:39:04.273Z,100618.00
2023-04-02T02:41:33.994Z,100618.72
2023-04-02T02:44:10.223Z,100619.78
2023-04-02T02:46:54.902Z,100626.72
2023-04-02T02:49:28.570Z,100627.47
2023-04-02T02:52:06.722Z,100632.75
2023-04-02T02:54:40.182Z,100625.78
2023-04-02T02:57:13.476Z,100637.03
2023-04-02T02:59:42.484Z,100639.69
2023-04-02T03:02:10.020Z,100641.22
2023-04-02T03:04:38.681Z,100638.03
2023-04-02T03:07:09.168Z,100644.59
2023-04-02T03:09:36.111Z,100654.91
2023-04-02T03:12:13.777Z,100654.66
2023-04-02T03:14:47.895Z,100655.50
2023-04-02T03:17:33.558Z,100653.94
2023-04-02T03:20:37.481Z,100647.44
2023-04-02T03:23:19.146Z,100649.72
2023-04-02T03:25:59.424Z,100649.38
2023-04-02T03:28:31.406Z,100650.78
2023-04-02T03:31:01.650Z,100655.69
2023-04-02T03:33:35.574Z,100650.41
2023-04-02T03:36:19.820Z,100642.13
2023-04-02T03:39:02.487Z,100648.97
2023-04-02T03:41:45.258Z,100654.97
2023-04-02T03:44:30.815Z,100659.41
2023-04-02T03:47:32.677Z,100656.41
2023-04-02T03:50:01.597Z,100662.13
2023-04-02T03:52:30.897Z,100655.78
2023-04-02T03:55:00.929Z,100663.22
2023-04-02T03:57:31.004Z,100665.31
2023-04-02T04:00:07.689Z,100665.09
2023-04-02T04:02:46.768Z,100670.72
2023-04-02T04:05:24.656Z,100674.06
2023-04-02T04:08:01.799Z,100676.59
2023-04-02T04:10:30.750Z,100672.75
2023-04-02T04:13:06.020Z,100671.41
2023-04-02T04:15:53.396Z,100678.84
2023-04-02T04:18:24.451Z,100682.78
2023-04-02T04:20:57.086Z,100684.19
2023-04-02T04:23:36.044Z,100679.50
2023-04-02T04:26:19.731Z,100679.97
2023-04-02T04:29:05.888Z,100686.53
2023-04-02T04:31:39.871Z,100691.44
2023-04-02T04:34:16.915Z,100688.28
2023-04-02T04:36:54.565Z,100690.78
2023-04-02T04:39:45.715Z,100688.47
2023-04-02T04:42:24.985Z,100695.19
2023-04-02T04:45:10.000Z,100694.94
2023-04-02T04:47:40.882Z,100691.19
2023-04-02T04:50:19.381Z,100692.59
2023-04-02T04:52:46.560Z,100701.69
2023-04-02T04:56:18.212Z,100692.16
2023-04-02T04:58:53.269Z,100695.81
2023-04-02T05:01:43.109Z,100690.97
2023-04-02T05:04:17.104Z,100693.34
2023-04-02T05:06:53.098Z,100685.59
2023-04-02T05:09:49.550Z,100702.59
2023-04-02T05:12:35.537Z,100709.06
2023-04-02T05:15:27.019Z,100721.28
2023-04-02T05:18:18.471Z,100720.00
2023-04-02T05:21:13.032Z,100717.78
2023-04-02T05:24:18.288Z,100710.69
2023-04-02T05:26:47.715Z,100710.41
2023-04-02T05:29:36.075Z,100706.94
2023-04-02T05:32:36.444Z,100723.25
2023-04-02T05:35:08.686Z,100723.84
2023-04-02T05:37:53.821Z,100716.44
2023-04-02T05:40:33.263Z,100713.03
2023-04-02T05:43:04.349Z,100719.88
2023-04-02T05:45:39.235Z,100724.38
2023-04-02T05:48:22.501Z,100730.56
2023-04-02T05:50:52.728Z,100728.50
2023-04-02T05:53:32.341Z,100733.38
2023-04-02T05:56:20.760Z,100736.19
2023-04-02T05:58:56.029Z,100737.59
2023-04-02T06:01:38.303Z,100743.34
2023-04-02T06:04:36.624Z,100735.91
2023-04-02T06:07:09.214Z,100742.50
2023-04-02T06:09:46.557Z,100750.28
2023-04-02T06:12:28.570Z,100754.22
2023-04-02T06:14:55.842Z,100748.50
2023-04-02T06:17:23.303Z,100749.19
2023-04-02T06:19:52.399Z,100754.53
2023-04-02T06:22:31.168Z,100761.47
2023-04-02T06:25:27.297Z,100750.19
2023-04-02T06:27:58.560Z,100757.88
2023-04-02T06:30:32.994Z,100758.97
2023-04-02T06:33:00.094Z,100766.13
2023-04-02T06:35:28.157Z,100770.69
2023-04-02T06:38:00.009Z,100769.47
2023-04-02T06:40:49.581Z,100777.00
2023-04-02T06:43:33.531Z,100775.19
2023-04-02T06:46:07.197Z,100776.44
2023-04-02T06:48:37.969Z,100775.75
2023-04-02T06:51:11.577Z,100778.97
2023-04-02T06:53:45.818Z,100783.56
2023-04-02T06:56:48.238Z,100777.53
2023-04-02T06:59:16.769Z,100779.94
2023-04-02T07:04:10.549Z,100789.13
2023-04-02T07:06:37.622Z,100788.97
2023-04-02T07:09:04.776Z,100790.94
2023-04-02T07:11:31.757Z,100795.56
2023-04-02T07:13:59.058Z,100792.75
2023-04-02T07:16:28.317Z,100800.59
2023-04-02T07:18:56.438Z,100799.63
2023-04-02T07:21:23.458Z,100804.09
2023-04-02T07:23:50.527Z,100797.66
2023-04-02T07:26:20.501Z,100812.72
2023-04-02T07:28:47.565Z,100795.56
2023-04-02T07:31:20.913Z,100792.34
2023-04-02T07:33:48.375Z,100798.63
2023-04-02T07:36:18.937Z,100791.09
2023-04-02T07:38:46.524Z,100786.44
2023-04-02T07:41:18.562Z,100803.03
2023-04-02T07:43:46.415Z,100790.47
2023-04-02T07:46:35.081Z,100795.38
2023-04-02T07:49:09.466Z,100810.16
2023-04-02T07:51:40.703Z,100802.22
2023-04-02T07:54:10.817Z,100804.63
2023-04-02T07:56:38.753Z,100795.66
2023-04-02T07:59:06.549Z,100808.31
2023-04-02T08:01:37.389Z,100809.97
2023-04-02T08:04:05.473Z,100817.22
2023-04-02T08:06:33.699Z,100810.72
2023-04-02T08:09:06.519Z,100817.28
2023-04-02T08:11:33.494Z,100786.19
2023-04-02T08:14:03.802Z,100800.75
2023-04-02T08:16:53.986Z,100809.91
2023-04-02T08:19:21.555Z,100791.28
2023-04-02T08:21:51.717Z,100810.22
2023-04-02T08:24:19.689Z,100809.06
2023-04-02T08:26:47.671Z,100809.75
2023-04-02T08:29:14.992Z,100838.47
2023-04-02T08:31:42.179Z,100825.00
2023-04-02T08:34:09.379Z,100827.03
2023-04-02T08:36:39.111Z,100827.41
2023-04-02T08:39:12.008Z,100827.22
2023-04-02T08:41:50.145Z,100826.00
2023-04-02T08:44:47.750Z,100845.06
2023-04-02T08:47:18.192Z,100832.63
2023-04-02T08:49:50.026Z,100843.44
2023-04-02T08:52:27.184Z,100833.81
2023-04-02T08:54:56.418Z,100844.44
2023-04-02T08:57:40.816Z,100845.16
2023-04-02T09:00:13.475Z,100827.69
2023-04-02T09:02:47.328Z,100847.78
2023-04-02T09:05:23.914Z,100841.63
2023-04-02T09:07:52.800Z,100848.47
2023-04-02T09:10:20.125Z,100843.41
2023-04-02T09:12:54.215Z,100850.09
2023-04-02T09:15:31.587Z,100852.19
2023-04-02T09:18:20.064Z,100852.06
2023-04-02T09:20:48.347Z,100854.59
2023-04-02T09:23:24.505Z,100848.47
2023-04-02T09:26:03.489Z,100842.88
2023-04-02T09:28:32.475Z,100840.78
2023-04-02T09:31:11.780Z,100836.44
2023-04-02T09:33:43.167Z,100842.06
2023-04-02T09:36:34.381Z,100841.34
2023-04-02T09:39:19.049Z,100850.59
2023-04-02T09:41:55.845Z,100842.47
2023-04-02T09:44:32.022Z,100850.72
2023-04-02T09:47:04.182Z,100855.19
2023-04-02T09:49:40.236Z,100855.19
2023-04-02T09:52:29.960Z,100854.22
2023-04-02T09:55:15.674Z,100849.31
2023-04-02T09:57:43.753Z,100858.53
2023-04-02T10:00:30.605Z,100843.44
2023-04-02T10:03:14.175Z,100851.78
2023-04-02T10:05:43.271Z,100860.44
2023-04-02T10:08:25.501Z,100850.09
2023-04-02T10:11:00.628Z,100863.25
2023-04-02T10:13:46.467Z,100858.53
2023-04-02T10:16:23.007Z,100863.13
2023-04-02T10:19:29.164Z,100862.84
2023-04-02T10:21:58.398Z,100865.63
2023-04-02T10:24:27.890Z,100858.91
2023-04-02T10:27:10.077Z,100875.41
2023-04-02T10:30:04.166Z,100871.47
2023-04-02T10:32:53.212Z,100863.06
2023-04-02T10:35:38.305Z,100866.66
2023-04-02T10:38:24.637Z,100871.09
2023-04-02T10:40:58.385Z,100862.53
2023-04-02T10:44:20.716Z,100879.88
2023-04-02T10:47:09.727Z,100880.31
2023-04-02T10:49:53.842Z,100871.09
2023-04-02T10:52:23.402Z,100869.13
2023-04-02T10:54:58.053Z,100877.66
2023-04-02T10:57:38.599Z,100869.34
2023-04-02T11:00:11.744Z,100874.91
2023-04-02T11:02:45.036Z,100870.13
2023-04-02T11:05:40.595Z,100864.97
2023-04-02T11:08:14.624Z,100866.88
2023-04-02T11:10:48.327Z,100874.50
2023-04-02T11:13:37.432Z,100865.94
2023-04-02T11:16:04.712Z,100863.81
2023-04-02T11:18:37.603Z,100858.19
2023-04-02T11:21:23.160Z,100863.97
2023-04-02T11:24:01.996Z,100870.19
2023-04-02T11:26:42.694Z,100879.66
2023-04-02T11:29:21.395Z,100881.00
2023-04-02T11:31:51.491Z,100874.06
2023-04-02T11:35:07.188Z,100880.56
2023-04-02T11:37:45.762Z,100882.25
2023-04-02T11:40:16.024Z,100883.53
2023-04-02T11:42:43.988Z,100874.63
2023-04-02T11:45:23.724Z,100875.00
2023-04-02T11:47:59.740Z,100888.44
2023-04-02T11:50:38.041Z,100880.47
2023-04-02T11:53:16.072Z,100883.28
2023-04-02T11:55:47.452Z,100883.56
2023-04-02T11:58:48.276Z,100885.22
2023-04-02T12:01:47.523Z,100884.56
2023-04-02T12:04:39.353Z,100891.91
2023-04-02T12:07:35.276Z,100888.84
2023-04-02T12:10:32.582Z,100886.84
2023-04-02T12:12:59.786Z,100870.75
2023-04-02T12:15:27.242Z,100886.97
2023-04-02T12:18:02.745Z,100882.34
2023-04-02T12:20:31.574Z,100889.03
2023-04-02T12:22:58.989Z,100881.34
2023-04-02T12:25:40.267Z,100886.22
2023-04-02T12:28:10.000Z,100886.78
2023-04-02T12:30:41.285Z,100883.84
2023-04-02T12:33:24.084Z,100885.69
2023-04-02T12:35:58.216Z,100872.28
2023-04-02T12:38:29.723Z,100880.41
2023-04-02T12:40:59.085Z,100878.44
2023-04-02T12:43:34.939Z,100877.66
2023-04-02T12:46:05.956Z,100867.47
2023-04-02T12:48:35.003Z,100872.91
2023-04-02T12:51:04.036Z,100875.03
2023-04-02T12:53:41.448Z,100873.22
2023-04-02T12:56:19.781Z,100875.19
2023-04-02T12:58:56.835Z,100871.69
2023-04-02T13:01:29.580Z,100879.66
2023-04-02T13:04:08.440Z,100835.34
2023-04-02T13:06:36.568Z,100875.47
2023-04-02T13:09:28.542Z,100883.44
2023-04-02T13:11:58.611Z,100879.94
2023-04-02T13:14:26.874Z,100882.47
2023-04-02T13:16:54.849Z,100878.81
2023-04-02T13:19:25.792Z,100882.59
2023-04-02T13:21:54.179Z,100880.34
2023-04-02T13:24:29.304Z,100882.25
2023-04-02T13:26:58.460Z,100882.13
2023-04-02T13:29:31.777Z,100886.44
2023-04-02T13:32:02.508Z,100884.59
2023-04-02T13:34:30.041Z,100882.06
2023-04-02T13:36:57.707Z,100886.91
2023-04-02T13:39:25.284Z,100889.13
2023-04-02T13:42:01.787Z,100881.00
2023-04-02T13:44:31.887Z,100890.34
2023-04-02T13:46:59.441Z,100894.22
2023-04-02T13:49:27.687Z,100885.81
2023-04-02T13:52:05.777Z,100889.28
2023-04-02T13:54:49.174Z,100885.94
2023-04-02T13:57:16.372Z,100877.66
2023-04-02T13:59:43.370Z,100882.38
2023-04-02T14:02:17.415Z,100885.16
2023-04-02T14:04:51.547Z,100887.22
2023-04-02T14:07:22.136Z,100887.38
2023-04-02T14:10:00.309Z,100888.34
2023-04-02T14:12:54.094Z,100888.06
2023-04-02T14:15:52.740Z,100885.16
2023-04-02T14:18:42.247Z,100868.63
2023-04-02T14:21:26.680Z,100865.19
2023-04-02T14:24:15.025Z,100851.75
2023-04-02T14:27:27.454Z,100860.69
2023-04-02T14:30:04.553Z,100862.63
2023-04-02T14:32:58.518Z,100867.72
2023-04-02T14:35:37.889Z,100871.19
2023-04-02T14:38:11.121Z,100861.63
2023-04-02T14:40:53.391Z,100850.19
2023-04-02T14:43:28.007Z,100866.84
2023-04-02T14:46:05.361Z,100862.97
2023-04-02T14:48:44.522Z,100864.25
2023-04-02T14:51:14.421Z,100854.94
2023-04-02T14:54:09.419Z,100853.66
2023-04-02T14:56:53.078Z,100863.28
2023-04-02T14:59:25.960Z,100865.97
2023-04-02T15:02:00.067Z,100860.84
2023-04-02T15:04:32.670Z,100865.41
2023-04-02T15:07:14.282Z,100864.47
2023-04-02T15:09:47.738Z,100863.00
2023-04-02T15:12:22.969Z,100871.38
2023-04-02T15:14:56.087Z,100871.50
2023-04-02T15:17:24.934Z,100878.31
2023-04-02T15:20:02.617Z,100878.06
2023-04-02T15:22:45.047Z,100878.16
2023-04-02T15:25:24.987Z,100876.00
2023-04-02T15:28:02.868Z,100875.97
2023-04-02T15:30:38.088Z,100876.66
2023-04-02T15:33:33.306Z,100885.25
2023-04-02T15:36:18.540Z,100878.03
2023-04-02T15:38:52.400Z,100870.56
2023-04-02T15:41:32.318Z,100883.72
2023-04-02T15:44:15.751Z,100887.75
2023-04-02T15:46:42.616Z,100883.03
2023-04-02T15:49:27.860Z,100879.28
2023-04-02T15:52:14.335Z,100877.31
2023-04-02T15:54:41.343Z,100876.06
2023-04-02T15:57:27.126Z,100882.00
2023-04-02T16:00:20.051Z,100887.72
2023-04-02T16:03:17.436Z,100883.84
2023-04-02T16:06:13.067Z,100878.91
2023-04-02T16:08:45.765Z,100884.44
2023-04-02T16:11:15.132Z,100887.31
2023-04-02T16:13:43.116Z,100879.63
2023-04-02T16:16:14.588Z,100886.66
2023-04-02T16:18:50.864Z,100887.84
2023-04-02T16:21:22.574Z,100886.28
2023-04-02T16:23:49.968Z,100886.69
2023-04-02T16:26:52.389Z,100883.41
2023-04-02T16:29:55.059Z,100882.91
2023-04-02T16:32:48.346Z,100886.78
2023-04-02T16:35:52.877Z,100884.69
2023-04-02T16:38:44.667Z,100890.72
2023-04-02T16:41:48.212Z,100888.38
2023-04-02T16:44:28.609Z,100887.03
2023-04-02T16:47:04.829Z,100897.09
2023-04-02T16:49:37.597Z,100898.34
2023-04-02T16:52:17.484Z,100897.94
2023-04-02T16:54:58.554Z,100902.66
2023-04-02T16:57:49.000Z,100890.03
2023-04-02T17:00:22.399Z,100897.38
2023-04-02T17:03:13.688Z,100894.22
2023-04-02T17:06:02.036Z,100891.97
2023-04-02T17:09:07.410Z,100874.09
2023-04-02T17:11:43.568Z,100892.69
2023-04-02T17:14:16.980Z,100887.72
2023-04-02T17:16:46.052Z,100885.28
2023-04-02T17:19:16.782Z,100877.72
2023-04-02T17:21:49.852Z,100881.38
2023-04-02T17:24:26.072Z,100884.22
2023-04-02T17:27:05.594Z,100882.00
2023-04-02T17:29:42.608Z,100877.88
2023-04-02T17:32:20.727Z,100879.94
2023-04-02T17:34:47.654Z,100881.09
2023-04-02T17:37:31.836Z,100883.91
2023-04-02T17:40:19.636Z,100886.66
2023-04-02T17:43:03.710Z,100893.69
2023-04-02T17:45:40.299Z,100884.22
2023-04-02T17:48:16.548Z,100888.72
2023-04-02T17:50:53.875Z,100887.97
2023-04-02T17:54:05.456Z,100893.31
2023-04-02T17:57:02.564Z,100885.00
2023-04-02T17:59:56.616Z,100885.09
2023-04-02T18:02:35.142Z,100888.75
2023-04-02T18:05:37.597Z,100890.81
2023-04-02T18:08:29.521Z,100881.34
2023-04-02T18:11:10.107Z,100888.69
2023-04-02T18:13:51.309Z,100886.34
2023-04-02T18:16:45.156Z,100885.88
2023-04-02T18:19:20.710Z,100880.16
2023-04-02T18:22:13.923Z,100882.53
2023-04-02T18:25:22.130Z,100890.75
2023-04-02T18:27:55.178Z,100891.91
2023-04-02T18:30:55.154Z,100883.38
2023-04-02T18:33:48.532Z,100887.88
2023-04-02T18:36:52.839Z,100884.56
2023-04-02T18:39:32.079Z,100886.16
2023-04-02T18:42:27.222Z,100882.81
2023-04-02T18:45:14.978Z,100883.78
2023-04-02T18:48:06.769Z,100889.22
2023-04-02T18:50:39.703Z,100885.97
2023-04-02T18:53:16.789Z,100882.94
2023-04-02T18:55:55.632Z,100883.88
2023-04-02T18:58:34.189Z,100886.50
2023-04-02T19:01:05.934Z,100895.97
2023-04-02T19:03:40.346Z,100890.81
2023-04-02T19:06:19.686Z,100884.72
2023-04-02T19:09:00.007Z,100883.03
2023-04-02T19:11:32.395Z,100882.09
2023-04-02T19:14:01.828Z,100864.31
2023-04-02T19:17:02.897Z,100871.97
2023-04-02T19:19:38.464Z,100875.56
2023-04-02T19:22:18.357Z,100875.63
2023-04-02T19:25:09.969Z,100873.09
2023-04-02T19:27:55.313Z,100871.50
2023-04-02T19:30:40.733Z,100875.16
2023-04-02T19:33:29.615Z,100862.41
2023-04-02T19:36:27.209Z,100845.66
2023-04-02T19:39:27.229Z,100866.34
2023-04-02T19:42:23.730Z,100861.25
2023-04-02T19:44:54.546Z,100862.41
2023-04-02T19:47:24.927Z,100859.31
2023-04-02T19:49:53.803Z,100861.06
2023-04-02T19:52:21.897Z,100858.53
2023-04-02T19:54:49.419Z,100842.69
2023-04-02T19:57:17.801Z,100863.13
2023-04-02T19:59:44.982Z,100856.34
2023-04-02T20:02:12.132Z,100846.84
2023-04-02T20:04:39.368Z,100851.41
2023-04-02T20:07:06.554Z,100856.63
2023-04-02T20:09:33.868Z,100856.06
2023-04-02T20:12:01.295Z,100862.16
2023-04-02T20:14:28.374Z,100858.78
2023-04-02T20:16:55.892Z,100874.50
2023-04-02T20:19:24.197Z,100874.56
2023-04-02T20:21:51.935Z,100863.34
2023-04-02T20:24:19.039Z,100865.78
2023-04-02T20:26:46.153Z,100864.00
2023-04-02T20:29:13.422Z,100865.50
2023-04-02T20:31:40.731Z,100852.41
2023-04-02T20:34:09.723Z,100858.50
2023-04-02T20:36:36.790Z,100859.41
2023-04-02T20:39:07.316Z,100866.34
2023-04-02T20:41:34.540Z,100867.44
2023-04-02T20:44:02.248Z,100858.00
2023-04-02T20:46:29.690Z,100868.00
2023-04-02T20:48:56.746Z,100864.81
2023-04-02T20:51:23.707Z,100864.97
2023-04-02T20:53:50.715Z,100860.91
2023-04-02T20:56:19.219Z,100860.28
2023-04-02T20:58:46.297Z,100855.31
2023-04-02T21:01:24.635Z,100857.06
2023-04-02T21:04:02.665Z,100856.50
2023-04-02T21:06:32.545Z,100860.03
2023-04-02T21:09:01.709Z,100856.66
2023-04-02T21:11:28.761Z,100859.44
2023-04-02T21:13:56.102Z,100848.56
2023-04-02T21:16:28.560Z,100856.34
2023-04-02T21:18:58.534Z,100864.25
2023-04-02T21:21:26.041Z,100858.38
2023-04-02T21:24:01.711Z,100868.84
2023-04-02T21:26:33.330Z,100871.63
2023-04-02T21:29:01.909Z,100865.63
2023-04-02T21:31:31.109Z,100863.06
2023-04-02T21:33:59.368Z,100864.94
2023-04-02T21:36:29.474Z,100864.25
2023-04-02T21:39:08.578Z,100863.44
2023-04-02T21:41:38.165Z,100860.88
2023-04-02T21:44:07.433Z,100861.03
2023-04-02T21:46:38.804Z,100864.63
2023-04-02T21:49:08.197Z,100864.63
2023-04-02T21:51:36.921Z,100853.41
2023-04-02T21:54:04.627Z,100853.47
2023-04-02T21:56:34.717Z,100855.22
2023-04-02T21:59:02.385Z,100858.78
2023-04-02T22:01:32.673Z,100856.16
2023-04-02T22:04:02.441Z,100863.06
2023-04-02T22:06:32.312Z,100861.41
2023-04-02T22:09:01.468Z,100867.47
2023-04-02T22:11:35.983Z,100862.31
2023-04-02T22:14:03.673Z,100862.41
2023-04-02T22:16:33.731Z,100856.44
2023-04-02T22:19:03.609Z,100851.25
2023-04-02T22:21:31.494Z,100850.34
2023-04-02T22:24:06.621Z,100846.13
2023-04-02T22:26:35.386Z,100837.69
2023-04-02T22:29:02.387Z,100850.50
2023-04-02T22:31:31.657Z,100853.88
2023-04-02T22:33:59.289Z,100845.13
2023-04-02T22:36:28.050Z,100844.16
2023-04-02T22:38:55.538Z,100839.88
2023-04-02T22:41:28.240Z,100841.50
2023-04-02T22:43:56.861Z,100834.06
2023-04-02T22:46:25.805Z,100840.97
2023-04-02T22:48:53.535Z,100846.03
2023-04-02T22:51:22.424Z,100853.03
2023-04-02T22:53:50.062Z,100846.19
2023-04-02T22:56:20.445Z,100847.16
2023-04-02T22:58:47.455Z,100838.53
2023-04-02T23:01:22.222Z,100849.06
2023-04-02T23:03:49.705Z,100838.78
2023-04-02T23:06:18.512Z,100838.97
2023-04-02T23:08:46.670Z,100838.19
2023-04-02T23:11:22.878Z,100846.03
2023-04-02T23:13:53.105Z,100834.81
2023-04-02T23:16:20.697Z,100838.28
2023-04-02T23:18:48.644Z,100834.06
2023-04-02T23:21:17.668Z,100847.97
2023-04-02T23:23:45.778Z,100844.59
2023-04-02T23:26:17.988Z,100840.34
2023-04-02T23:28:45.599Z,100844.59
2023-04-02T23:31:15.992Z,100848.13
2023-04-02T23:33:43.832Z,100838.59
2023-04-02T23:36:27.390Z,100847.28
2023-04-02T23:38:55.757Z,100849.06
2023-04-02T23:41:24.705Z,100843.97
2023-04-02T23:43:51.818Z,100848.38
2023-04-02T23:46:19.436Z,100852.06
2023-04-02T23:48:47.619Z,100846.25
2023-04-02T23:51:14.791Z,100849.63
2023-04-02T23:53:43.463Z,100847.94
2023-04-02T23:56:10.744Z,100848.88
2023-04-02T23:58:37.766Z,100848.88
